createdAt,value
2018-12-08T00:00:00.129Z,7.30
2018-12-08T00:02:27.865Z,7.30
2018-12-08T00:04:55.562Z,7.30
2018-12-08T00:07:23.401Z,7.30
2018-12-08T00:09:51.143Z,7.40
2018-12-08T00:12:18.892Z,7.30
2018-12-08T00:14:46.670Z,7.40
2018-12-08T00:17:14.401Z,7.40
2018-12-08T00:19:42.099Z,7.30
2018-12-08T00:22:09.822Z,7.30
2018-12-08T00:24:37.553Z,7.40
2018-12-08T00:27:05.323Z,7.40
2018-12-08T00:29:33.116Z,7.40
2018-12-08T00:32:00.912Z,7.40
2018-12-08T00:34:28.613Z,7.40
2018-12-08T00:36:56.340Z,7.40
2018-12-08T00:39:24.057Z,7.40
2018-12-08T00:41:51.856Z,7.40
2018-12-08T00:44:19.611Z,7.50
2018-12-08T00:46:47.298Z,7.40
2018-12-08T00:49:14.990Z,7.50
2018-12-08T00:51:42.720Z,7.50
2018-12-08T00:54:10.411Z,7.50
2018-12-08T00:56:38.108Z,7.50
2018-12-08T00:59:05.877Z,7.50
2018-12-08T01:01:33.697Z,7.50
2018-12-08T01:04:01.424Z,7.50
2018-12-08T01:06:29.182Z,7.50
2018-12-08T01:08:56.864Z,7.50
2018-12-08T01:11:24.759Z,7.50
2018-12-08T01:13:52.465Z,7.50
2018-12-08T01:16:20.138Z,7.60
2018-12-08T01:18:47.878Z,7.50
2018-12-08T01:21:15.642Z,7.50
2018-12-08T01:23:43.317Z,7.50
2018-12-08T01:26:11.024Z,7.50
2018-12-08T01:28:38.720Z,7.50
2018-12-08T01:31:06.526Z,7.50
2018-12-08T01:33:34.229Z,7.60
2018-12-08T01:36:01.974Z,7.60
2018-12-08T01:38:29.646Z,7.60
2018-12-08T01:40:57.331Z,7.50
2018-12-08T01:43:25.113Z,7.50
2018-12-08T01:45:52.868Z,7.60
2018-12-08T01:48:20.576Z,7.60
2018-12-08T01:50:48.350Z,7.60
2018-12-08T01:53:16.104Z,7.60
2018-12-08T01:55:43.802Z,7.60
2018-12-08T01:58:11.541Z,7.50
2018-12-08T02:00:39.278Z,7.50
2018-12-08T02:03:06.981Z,7.40
2018-12-08T02:05:34.686Z,7.40
2018-12-08T02:08:02.510Z,7.30
2018-12-08T02:10:30.189Z,7.30
2018-12-08T02:12:57.869Z,7.30
2018-12-08T02:15:25.609Z,7.30
2018-12-08T02:17:53.301Z,7.20
2018-12-08T02:20:21.043Z,7.20
2018-12-08T02:22:48.730Z,7.20
2018-12-08T02:25:16.438Z,7.20
2018-12-08T02:27:44.217Z,7.20
2018-12-08T02:30:12.280Z,7.20
2018-12-08T02:32:40.161Z,7.20
2018-12-08T02:35:07.870Z,7.20
2018-12-08T02:37:35.545Z,7.20
2018-12-08T02:40:03.604Z,7.20
2018-12-08T02:42:31.360Z,7.20
2018-12-08T02:44:59.080Z,7.10
2018-12-08T02:47:26.792Z,7.10
2018-12-08T02:49:54.521Z,7.10
2018-12-08T02:52:22.226Z,7.10
2018-12-08T02:54:49.915Z,7.00
2018-12-08T02:57:17.729Z,7.10
2018-12-08T02:59:45.404Z,7.10
2018-12-08T03:02:13.130Z,7.10
2018-12-08T03:04:40.880Z,7.10
2018-12-08T03:07:08.560Z,7.10
2018-12-08T03:09:36.261Z,7.30
2018-12-08T03:12:03.978Z,7.30
2018-12-08T03:14:31.673Z,7.30
2018-12-08T03:16:59.392Z,7.30
2018-12-08T03:19:27.100Z,7.20
2018-12-08T03:21:54.798Z,7.20
2018-12-08T03:24:22.506Z,7.10
2018-12-08T03:26:50.252Z,7.10
2018-12-08T03:29:17.947Z,7.10
2018-12-08T03:31:45.641Z,7.00
2018-12-08T03:34:13.372Z,7.00
2018-12-08T03:36:41.080Z,7.00
2018-12-08T03:39:08.798Z,6.90
2018-12-08T03:41:36.516Z,6.90
2018-12-08T03:44:04.328Z,6.90
2018-12-08T03:46:32.026Z,6.90
2018-12-08T03:48:59.789Z,6.90
2018-12-08T03:51:27.495Z,6.90
2018-12-08T03:53:55.200Z,6.80
2018-12-08T03:56:22.955Z,6.80
2018-12-08T03:58:50.714Z,6.80
2018-12-08T04:01:18.410Z,6.90
2018-12-08T04:03:46.140Z,6.90
2018-12-08T04:06:13.817Z,6.90
2018-12-08T04:08:41.630Z,6.90
2018-12-08T04:11:09.361Z,6.90
2018-12-08T04:13:37.072Z,6.90
2018-12-08T04:16:04.752Z,7.00
2018-12-08T04:18:32.511Z,7.00
2018-12-08T04:21:00.204Z,7.00
2018-12-08T04:23:27.920Z,7.00
2018-12-08T04:25:55.651Z,7.10
2018-12-08T04:28:23.346Z,7.10
2018-12-08T04:30:51.026Z,7.10
2018-12-08T04:33:18.809Z,7.10
2018-12-08T04:35:46.543Z,7.10
2018-12-08T04:38:14.198Z,7.10
2018-12-08T04:40:41.983Z,7.10
2018-12-08T04:43:09.645Z,7.20
2018-12-08T04:45:37.297Z,7.20
2018-12-08T04:48:05.040Z,7.20
2018-12-08T04:50:32.713Z,7.20
2018-12-08T04:53:00.401Z,7.20
2018-12-08T04:55:28.133Z,7.30
2018-12-08T04:57:55.825Z,7.30
2018-12-08T05:00:23.539Z,7.30
2018-12-08T05:02:51.255Z,7.40
2018-12-08T05:05:18.952Z,7.40
2018-12-08T05:07:46.678Z,7.40
2018-12-08T05:10:14.378Z,7.50
2018-12-08T05:12:42.145Z,7.50
2018-12-08T05:15:09.970Z,7.50
2018-12-08T05:17:37.701Z,7.60
2018-12-08T05:20:05.547Z,7.60
2018-12-08T05:22:33.212Z,7.60
2018-12-08T05:25:00.966Z,7.70
2018-12-08T05:27:28.647Z,7.70
2018-12-08T05:29:56.359Z,7.70
2018-12-08T05:32:24.177Z,7.70
2018-12-08T05:34:51.895Z,7.70
2018-12-08T05:37:19.553Z,7.80
2018-12-08T05:39:47.262Z,7.80
2018-12-08T05:42:14.967Z,7.90
2018-12-08T05:44:42.671Z,7.90
2018-12-08T05:47:10.418Z,7.90
2018-12-08T05:49:38.082Z,7.90
2018-12-08T05:52:05.797Z,7.90
2018-12-08T05:54:33.578Z,7.90
2018-12-08T05:57:01.291Z,7.90
2018-12-08T05:59:29.033Z,7.90
2018-12-08T06:01:56.748Z,7.90
2018-12-08T06:04:24.444Z,7.90
2018-12-08T06:06:52.146Z,8.00
2018-12-08T06:09:20.116Z,8.00
2018-12-08T06:11:47.828Z,8.00
2018-12-08T06:14:15.639Z,8.00
2018-12-08T06:16:43.407Z,8.00
2018-12-08T06:19:11.112Z,8.10
2018-12-08T06:21:39.619Z,8.10
2018-12-08T06:24:07.635Z,8.10
2018-12-08T06:26:45.382Z,8.10
2018-12-08T06:29:13.569Z,8.20
2018-12-08T06:31:41.278Z,8.20
2018-12-08T06:34:09.002Z,8.20
2018-12-08T06:36:36.762Z,8.20
2018-12-08T06:39:05.694Z,8.20
2018-12-08T06:41:33.406Z,8.20
2018-12-08T06:44:01.148Z,8.20
2018-12-08T06:46:28.894Z,8.20
2018-12-08T06:48:56.670Z,8.20
2018-12-08T06:51:24.426Z,8.20
2018-12-08T06:53:52.144Z,8.20
2018-12-08T06:56:19.962Z,8.20
2018-12-08T06:58:47.714Z,8.20
2018-12-08T07:01:15.438Z,8.20
2018-12-08T07:03:43.138Z,8.20
2018-12-08T07:06:10.884Z,8.20
2018-12-08T07:08:38.573Z,8.20
2018-12-08T07:11:06.343Z,8.20
2018-12-08T07:13:34.092Z,8.20
2018-12-08T07:16:01.808Z,8.20
2018-12-08T07:18:29.490Z,8.20
2018-12-08T07:20:57.234Z,8.20
2018-12-08T07:23:24.946Z,8.20
2018-12-08T07:25:52.698Z,8.20
2018-12-08T07:28:21.330Z,8.20
2018-12-08T07:30:49.274Z,8.20
2018-12-08T07:33:16.974Z,8.20
2018-12-08T07:35:44.706Z,8.20
2018-12-08T07:38:12.416Z,8.20
2018-12-08T07:40:40.150Z,8.20
2018-12-08T07:43:07.946Z,8.20
2018-12-08T07:45:35.654Z,8.20
2018-12-08T07:48:03.631Z,8.30
2018-12-08T07:50:31.353Z,8.30
2018-12-08T07:52:59.146Z,8.30
2018-12-08T07:55:26.866Z,8.20
2018-12-08T07:57:54.612Z,8.20
2018-12-08T08:00:22.331Z,8.30
2018-12-08T08:02:50.062Z,8.30
2018-12-08T08:05:17.819Z,8.30
2018-12-08T08:07:45.789Z,8.30
2018-12-08T08:10:13.517Z,8.30
2018-12-08T08:12:41.401Z,8.30
2018-12-08T08:15:10.047Z,8.30
2018-12-08T08:17:37.865Z,8.30
2018-12-08T08:20:08.197Z,8.30
2018-12-08T08:22:35.876Z,8.20
2018-12-08T08:25:04.611Z,8.20
2018-12-08T08:27:32.326Z,8.20
2018-12-08T08:30:00.025Z,8.10
2018-12-08T08:32:27.740Z,8.00
2018-12-08T08:34:55.569Z,8.00
2018-12-08T08:37:23.235Z,8.00
2018-12-08T08:39:50.981Z,7.90
2018-12-08T08:42:19.313Z,7.90
2018-12-08T08:44:47.049Z,7.90
2018-12-08T08:47:14.769Z,7.80
2018-12-08T08:49:42.698Z,7.70
2018-12-08T08:52:10.437Z,7.70
2018-12-08T08:54:38.153Z,7.70
2018-12-08T08:57:05.906Z,7.60
2018-12-08T08:59:33.651Z,7.50
2018-12-08T09:02:01.486Z,7.50
2018-12-08T09:04:29.218Z,7.50
2018-12-08T09:06:56.945Z,7.40
2018-12-08T09:09:24.719Z,7.40
2018-12-08T09:11:52.692Z,7.30
2018-12-08T09:14:20.401Z,7.20
2018-12-08T09:16:48.155Z,7.20
2018-12-08T09:19:15.926Z,7.20
2018-12-08T09:21:43.615Z,7.20
2018-12-08T09:24:11.322Z,7.10
2018-12-08T09:26:39.281Z,7.10
2018-12-08T09:29:07.003Z,6.90
2018-12-08T09:31:34.722Z,6.90
2018-12-08T09:34:02.507Z,6.80
2018-12-08T09:36:30.233Z,6.90
2018-12-08T09:38:57.939Z,6.80
2018-12-08T09:41:25.675Z,6.80
2018-12-08T09:43:53.437Z,6.80
2018-12-08T09:46:21.548Z,6.80
2018-12-08T09:48:49.293Z,6.70
2018-12-08T09:51:16.998Z,6.70
2018-12-08T09:53:44.746Z,6.70
2018-12-08T09:56:12.548Z,6.70
2018-12-08T09:58:40.278Z,6.70
2018-12-08T10:01:07.977Z,6.70
2018-12-08T10:03:35.904Z,6.70
2018-12-08T10:06:04.267Z,6.70
2018-12-08T10:08:32.035Z,6.70
2018-12-08T10:11:01.242Z,6.60
2018-12-08T10:13:28.906Z,6.60
2018-12-08T10:15:56.670Z,6.60
2018-12-08T10:18:24.393Z,6.60
2018-12-08T10:20:52.132Z,6.60
2018-12-08T10:23:19.818Z,6.60
2018-12-08T10:25:47.598Z,6.50
2018-12-08T10:28:15.285Z,6.50
2018-12-08T10:30:43.010Z,6.60
2018-12-08T10:33:10.796Z,6.60
2018-12-08T10:35:38.578Z,6.60
2018-12-08T10:38:06.384Z,6.60
2018-12-08T10:40:34.437Z,6.60
2018-12-08T10:43:04.354Z,6.60
2018-12-08T10:45:32.119Z,6.70
2018-12-08T10:47:59.892Z,6.70
2018-12-08T10:50:27.739Z,6.70
2018-12-08T10:52:57.310Z,6.70
2018-12-08T10:55:25.079Z,6.70
2018-12-08T10:57:53.056Z,6.60
2018-12-08T11:00:26.515Z,6.60
2018-12-08T11:02:58.746Z,6.60
2018-12-08T11:05:26.503Z,6.70
2018-12-08T11:07:54.345Z,6.70
2018-12-08T11:10:22.062Z,6.60
2018-12-08T11:12:49.910Z,6.60
2018-12-08T11:15:17.613Z,6.60
2018-12-08T11:17:45.330Z,6.60
2018-12-08T11:20:13.085Z,6.50
2018-12-08T11:22:41.213Z,6.50
2018-12-08T11:25:08.978Z,6.50
2018-12-08T11:27:36.705Z,6.50
2018-12-08T11:30:05.529Z,6.50
2018-12-08T11:32:33.316Z,6.50
2018-12-08T11:35:01.083Z,6.50
2018-12-08T11:37:28.815Z,6.50
2018-12-08T11:39:56.479Z,6.40
2018-12-08T11:42:24.310Z,6.40
2018-12-08T11:44:52.484Z,6.40
2018-12-08T11:47:20.251Z,6.40
2018-12-08T11:49:48.013Z,6.40
2018-12-08T11:52:17.782Z,6.40
2018-12-08T11:54:45.525Z,6.50
2018-12-08T11:57:13.329Z,6.50
2018-12-08T11:59:41.085Z,6.60
2018-12-08T12:02:16.340Z,6.60
2018-12-08T12:04:38.619Z,6.60
2018-12-08T12:07:06.445Z,6.50
2018-12-08T12:09:34.217Z,6.50
2018-12-08T12:12:01.993Z,6.50
2018-12-08T12:14:43.053Z,6.50
2018-12-08T12:17:11.003Z,6.50
2018-12-08T12:19:38.807Z,6.50
2018-12-08T12:22:06.584Z,6.40
2018-12-08T12:24:34.405Z,6.40
2018-12-08T12:27:02.123Z,6.40
2018-12-08T12:29:29.866Z,6.40
2018-12-08T12:31:57.635Z,6.40
2018-12-08T12:34:25.370Z,6.40
2018-12-08T12:36:53.108Z,6.40
2018-12-08T12:39:20.939Z,6.30
2018-12-08T12:41:48.697Z,6.10
2018-12-08T12:44:16.455Z,6.10
2018-12-08T12:46:44.236Z,6.10
2018-12-08T12:49:12.020Z,6.00
2018-12-08T12:51:39.786Z,5.90
2018-12-08T12:54:07.624Z,5.80
2018-12-08T12:56:35.403Z,5.80
2018-12-08T12:59:03.293Z,5.70
2018-12-08T13:01:31.119Z,5.70
2018-12-08T13:03:58.874Z,5.70
2018-12-08T13:06:26.682Z,5.70
2018-12-08T13:08:54.747Z,5.70
2018-12-08T13:11:22.504Z,5.70
2018-12-08T13:13:50.319Z,5.70
2018-12-08T13:16:18.085Z,5.80
2018-12-08T13:18:45.839Z,5.80
2018-12-08T13:21:13.628Z,5.80
2018-12-08T13:23:41.446Z,5.80
2018-12-08T13:26:09.236Z,5.80
2018-12-08T13:28:37.049Z,5.80
2018-12-08T13:31:04.837Z,5.80
2018-12-08T13:33:32.568Z,5.80
2018-12-08T13:36:01.480Z,5.80
2018-12-08T13:38:29.263Z,5.70
2018-12-08T13:40:57.013Z,5.70
2018-12-08T13:43:24.792Z,5.70
2018-12-08T13:45:52.644Z,5.70
2018-12-08T13:48:22.468Z,5.60
2018-12-08T13:50:50.763Z,5.60
2018-12-08T13:53:18.572Z,5.50
2018-12-08T13:55:46.343Z,5.50
2018-12-08T13:58:14.093Z,5.50
2018-12-08T14:00:41.848Z,5.50
2018-12-08T14:03:09.638Z,5.50
2018-12-08T14:05:37.521Z,5.50
2018-12-08T14:08:05.283Z,5.50
2018-12-08T14:10:33.070Z,5.40
2018-12-08T14:13:00.990Z,5.40
2018-12-08T14:15:28.861Z,5.40
2018-12-08T14:17:56.702Z,5.50
2018-12-08T14:20:29.626Z,5.50
2018-12-08T14:22:57.358Z,5.50
2018-12-08T14:25:25.202Z,5.50
2018-12-08T14:27:55.403Z,5.40
2018-12-08T14:30:23.208Z,5.40
2018-12-08T14:32:50.978Z,5.40
2018-12-08T14:35:18.827Z,5.40
2018-12-08T14:37:46.642Z,5.40
2018-12-08T14:40:14.397Z,5.40
2018-12-08T14:42:42.184Z,5.40
2018-12-08T14:45:11.445Z,5.30
2018-12-08T14:47:39.247Z,5.30
2018-12-08T14:50:09.132Z,5.30
2018-12-08T14:52:37.027Z,5.30
2018-12-08T14:55:06.584Z,5.20
2018-12-08T14:57:34.375Z,5.30
2018-12-08T15:00:02.202Z,5.20
2018-12-08T15:02:30.009Z,5.20
2018-12-08T15:04:57.874Z,5.20
2018-12-08T15:07:25.615Z,5.20
2018-12-08T15:09:53.386Z,5.20
2018-12-08T15:12:21.209Z,5.10
2018-12-08T15:14:49.080Z,5.10
2018-12-08T15:17:16.881Z,5.10
2018-12-08T15:19:44.692Z,5.10
2018-12-08T15:22:12.523Z,5.10
2018-12-08T15:24:40.317Z,5.10
2018-12-08T15:27:08.084Z,5.10
2018-12-08T15:29:35.834Z,5.20
2018-12-08T15:32:03.633Z,5.20
2018-12-08T15:34:31.435Z,5.20
2018-12-08T15:36:59.164Z,5.20
2018-12-08T15:39:27.065Z,5.20
2018-12-08T15:41:54.855Z,5.20
2018-12-08T15:44:22.665Z,5.20
2018-12-08T15:46:50.494Z,5.30
2018-12-08T15:49:18.325Z,5.20
2018-12-08T15:51:46.121Z,5.20
2018-12-08T15:54:13.897Z,5.20
2018-12-08T15:56:41.733Z,5.30
2018-12-08T15:59:09.489Z,5.20
2018-12-08T16:01:37.279Z,5.20
2018-12-08T16:04:05.076Z,5.20
2018-12-08T16:06:32.826Z,5.10
2018-12-08T16:09:00.589Z,5.10
2018-12-08T16:11:28.353Z,5.10
2018-12-08T16:13:56.493Z,5.10
2018-12-08T16:16:24.287Z,5.10
2018-12-08T16:18:54.393Z,5.10
2018-12-08T16:21:22.217Z,5.00
2018-12-08T16:23:49.905Z,5.00
2018-12-08T16:26:17.682Z,5.00
2018-12-08T16:28:45.482Z,4.90
2018-12-08T16:31:13.255Z,5.00
2018-12-08T16:33:44.247Z,5.00
2018-12-08T16:36:12.289Z,5.00
2018-12-08T16:38:40.153Z,4.90
2018-12-08T16:41:08.013Z,4.90
2018-12-08T16:43:35.807Z,5.00
2018-12-08T16:46:03.625Z,5.30
2018-12-08T16:48:31.436Z,5.10
2018-12-08T16:50:59.193Z,5.20
2018-12-08T16:53:26.977Z,5.20
2018-12-08T16:55:54.773Z,5.10
2018-12-08T16:58:22.653Z,5.20
2018-12-08T17:00:50.553Z,5.20
2018-12-08T17:03:18.525Z,5.20
2018-12-08T17:05:46.434Z,5.30
2018-12-08T17:08:14.251Z,5.40
2018-12-08T17:10:42.090Z,5.40
2018-12-08T17:13:09.887Z,5.50
2018-12-08T17:15:37.802Z,5.50
2018-12-08T17:18:05.649Z,5.60
2018-12-08T17:20:33.423Z,5.60
2018-12-08T17:23:01.279Z,5.70
2018-12-08T17:25:29.105Z,5.70
2018-12-08T17:27:56.845Z,5.80
2018-12-08T17:30:24.707Z,5.80
2018-12-08T17:32:52.560Z,5.80
2018-12-08T17:35:21.729Z,5.80
2018-12-08T17:37:49.554Z,5.80
2018-12-08T17:40:17.513Z,5.70
2018-12-08T17:42:45.284Z,5.70
2018-12-08T17:45:14.614Z,5.60
2018-12-08T17:47:43.669Z,5.60
2018-12-08T17:50:12.342Z,5.50
2018-12-08T17:52:41.698Z,5.50
2018-12-08T17:55:09.562Z,5.50
2018-12-08T17:57:39.110Z,5.50
2018-12-08T18:00:07.873Z,5.50
2018-12-08T18:02:35.663Z,5.40
2018-12-08T18:05:03.684Z,5.30
2018-12-08T18:07:31.462Z,5.40
2018-12-08T18:09:59.253Z,5.30
2018-12-08T18:12:27.511Z,5.30
2018-12-08T18:14:55.245Z,5.20
2018-12-08T18:17:23.145Z,5.20
2018-12-08T18:19:50.917Z,5.20
2018-12-08T18:22:18.916Z,5.10
2018-12-08T18:24:46.853Z,5.10
2018-12-08T18:27:15.929Z,5.10
2018-12-08T18:29:43.673Z,5.00
2018-12-08T18:32:11.477Z,5.00
2018-12-08T18:34:39.245Z,4.90
2018-12-08T18:37:07.325Z,5.00
2018-12-08T18:39:35.163Z,5.00
2018-12-08T18:42:03.036Z,4.90
2018-12-08T18:44:32.521Z,4.90
2018-12-08T18:47:00.363Z,4.90
2018-12-08T18:49:29.696Z,4.90
2018-12-08T18:51:59.333Z,4.80
2018-12-08T18:54:27.263Z,4.90
2018-12-08T18:56:55.269Z,4.90
2018-12-08T18:59:23.978Z,4.90
2018-12-08T19:01:52.419Z,5.00
2018-12-08T19:04:20.148Z,5.10
2018-12-08T19:06:47.953Z,5.10
2018-12-08T19:09:15.753Z,5.10
2018-12-08T19:11:45.233Z,5.10
2018-12-08T19:14:12.965Z,5.10
2018-12-08T19:16:41.069Z,5.20
2018-12-08T19:19:08.774Z,5.20
2018-12-08T19:21:36.502Z,5.40
2018-12-08T19:24:04.329Z,5.20
2018-12-08T19:26:32.082Z,5.20
2018-12-08T19:28:59.725Z,5.20
2018-12-08T19:31:27.463Z,5.20
2018-12-08T19:33:55.353Z,5.30
2018-12-08T19:36:23.151Z,5.40
2018-12-08T19:38:50.909Z,5.30
2018-12-08T19:41:19.247Z,5.30
2018-12-08T19:43:46.987Z,5.30
2018-12-08T19:46:14.713Z,5.30
2018-12-08T19:48:42.467Z,5.40
2018-12-08T19:51:10.205Z,5.40
2018-12-08T19:53:37.985Z,5.40
2018-12-08T19:56:05.733Z,5.40
2018-12-08T19:58:33.442Z,5.40
2018-12-08T20:01:01.381Z,5.40
2018-12-08T20:03:29.109Z,5.40
2018-12-08T20:05:56.861Z,5.40
2018-12-08T20:08:24.649Z,5.40
2018-12-08T20:10:52.360Z,5.50
2018-12-08T20:13:20.088Z,5.50
2018-12-08T20:15:47.812Z,5.50
2018-12-08T20:18:15.650Z,5.50
2018-12-08T20:20:43.423Z,5.50
2018-12-08T20:23:12.085Z,5.60
2018-12-08T20:25:39.832Z,5.60
2018-12-08T20:28:07.597Z,5.60
2018-12-08T20:30:35.343Z,5.60
2018-12-08T20:33:03.242Z,5.60
2018-12-08T20:35:31.069Z,5.60
2018-12-08T20:37:58.899Z,5.60
2018-12-08T20:40:26.711Z,5.50
2018-12-08T20:42:54.540Z,5.50
2018-12-08T20:45:22.293Z,5.40
2018-12-08T20:47:50.053Z,5.30
2018-12-08T20:50:17.817Z,5.30
2018-12-08T20:52:45.656Z,5.30
2018-12-08T20:55:13.739Z,5.30
2018-12-08T20:57:41.448Z,5.30
2018-12-08T21:00:09.437Z,5.30
2018-12-08T21:02:37.178Z,5.30
2018-12-08T21:05:05.216Z,5.30
2018-12-08T21:07:32.942Z,5.30
2018-12-08T21:10:00.649Z,5.30
2018-12-08T21:12:28.421Z,5.30
2018-12-08T21:14:56.188Z,5.30
2018-12-08T21:17:24.073Z,5.30
2018-12-08T21:19:51.803Z,5.20
2018-12-08T21:22:19.573Z,5.20
2018-12-08T21:24:47.245Z,5.20
2018-12-08T21:27:14.977Z,5.20
2018-12-08T21:29:42.729Z,5.20
2018-12-08T21:32:15.271Z,5.30
2018-12-08T21:34:43.029Z,5.30
2018-12-08T21:37:10.798Z,5.40
2018-12-08T21:39:38.570Z,5.50
2018-12-08T21:42:06.354Z,5.50
2018-12-08T21:44:34.096Z,5.60
2018-12-08T21:47:01.843Z,5.70
2018-12-08T21:49:29.623Z,5.70
2018-12-08T21:51:57.418Z,5.70
2018-12-08T21:54:25.114Z,5.70
2018-12-08T21:56:52.838Z,5.70
2018-12-08T21:59:20.564Z,5.80
2018-12-08T22:01:48.300Z,5.80
2018-12-08T22:04:16.062Z,5.80
2018-12-08T22:06:43.791Z,5.80
2018-12-08T22:09:11.480Z,5.90
2018-12-08T22:11:39.175Z,5.90
2018-12-08T22:14:06.851Z,5.90
2018-12-08T22:16:34.579Z,5.90
2018-12-08T22:19:02.320Z,5.90
2018-12-08T22:21:30.005Z,5.90
2018-12-08T22:23:57.682Z,5.90
2018-12-08T22:26:25.432Z,5.90
2018-12-08T22:28:53.089Z,6.00
2018-12-08T22:31:20.832Z,5.90
2018-12-08T22:33:48.579Z,6.00
2018-12-08T22:36:16.300Z,6.00
2018-12-08T22:38:44.000Z,5.90
2018-12-08T22:41:11.786Z,5.90
2018-12-08T22:43:39.532Z,5.90
2018-12-08T22:46:07.237Z,5.80
2018-12-08T22:48:34.941Z,5.80
2018-12-08T22:51:02.662Z,5.80
2018-12-08T22:53:30.341Z,5.80
2018-12-08T22:55:58.117Z,5.80
2018-12-08T22:58:25.865Z,5.70
2018-12-08T23:00:53.723Z,5.70
2018-12-08T23:03:21.543Z,5.70
2018-12-08T23:05:49.303Z,5.70
2018-12-08T23:08:17.047Z,5.70
2018-12-08T23:10:44.921Z,5.70
2018-12-08T23:13:12.698Z,5.70
2018-12-08T23:15:40.550Z,5.70
2018-12-08T23:18:08.579Z,5.60
2018-12-08T23:20:36.345Z,5.50
2018-12-08T23:23:04.123Z,5.50
2018-12-08T23:25:31.906Z,5.50
2018-12-08T23:27:59.694Z,5.50
2018-12-08T23:30:27.544Z,5.50
2018-12-08T23:32:55.267Z,5.60
2018-12-08T23:35:23.017Z,5.60
2018-12-08T23:37:50.695Z,5.60
2018-12-08T23:40:18.423Z,5.60
2018-12-08T23:42:46.135Z,5.60
2018-12-08T23:45:13.986Z,5.60
2018-12-08T23:47:41.721Z,5.60
2018-12-08T23:50:09.826Z,5.60
2018-12-08T23:52:37.515Z,5.60
2018-12-08T23:55:06.120Z,5.60
2018-12-08T23:57:33.885Z,5.60
